sensor_id;sensor_type;location;lat;lon;timestamp;pressure;altitude;pressure_sealevel;temperature;humidity
80382;BME280;69692;55.820;37.490;2023-12-29T00:01:14;99011.06;;;-1.02;67.71
80382;BME280;69692;55.820;37.490;2023-12-29T00:03:39;99010.41;;;-1.04;67.25
80382;BME280;69692;55.820;37.490;2023-12-29T00:06:06;99004.44;;;-0.98;67.30
80382;BME280;69692;55.820;37.490;2023-12-29T00:08:32;99002.31;;;-1.02;67.59
80382;BME280;69692;55.820;37.490;2023-12-29T00:10:58;99000.28;;;-0.92;68.13
80382;BME280;69692;55.820;37.490;2023-12-29T00:13:24;98994.16;;;-0.84;66.84
80382;BME280;69692;55.820;37.490;2023-12-29T00:15:54;98997.25;;;-0.81;67.13
80382;BME280;69692;55.820;37.490;2023-12-29T00:18:21;98985.88;;;-0.81;67.33
80382;BME280;69692;55.820;37.490;2023-12-29T00:20:48;98977.47;;;-0.85;66.98
80382;BME280;69692;55.820;37.490;2023-12-29T00:23:14;98971.06;;;-0.91;67.49
80382;BME280;69692;55.820;37.490;2023-12-29T00:25:40;98968.78;;;-0.94;67.22
80382;BME280;69692;55.820;37.490;2023-12-29T00:28:06;98953.94;;;-0.95;67.27
80382;BME280;69692;55.820;37.490;2023-12-29T00:30:32;98958.56;;;-0.97;67.40
80382;BME280;69692;55.820;37.490;2023-12-29T00:32:58;98946.56;;;-1.07;67.74
80382;BME280;69692;55.820;37.490;2023-12-29T00:35:24;98946.81;;;-1.17;68.33
80382;BME280;69692;55.820;37.490;2023-12-29T00:37:51;98940.88;;;-1.19;68.19
80382;BME280;69692;55.820;37.490;2023-12-29T00:40:18;98939.19;;;-1.20;68.18
80382;BME280;69692;55.820;37.490;2023-12-29T00:42:44;98937.00;;;-1.39;69.64
80382;BME280;69692;55.820;37.490;2023-12-29T00:45:10;98941.63;;;-1.41;69.22
80382;BME280;69692;55.820;37.490;2023-12-29T00:47:36;98937.19;;;-1.49;69.31
80382;BME280;69692;55.820;37.490;2023-12-29T00:50:03;98924.00;;;-1.49;69.20
80382;BME280;69692;55.820;37.490;2023-12-29T00:52:29;98929.13;;;-1.47;69.97
80382;BME280;69692;55.820;37.490;2023-12-29T00:54:55;98919.34;;;-1.39;69.71
80382;BME280;69692;55.820;37.490;2023-12-29T00:57:21;98913.16;;;-1.23;69.67
80382;BME280;69692;55.820;37.490;2023-12-29T00:59:47;98901.88;;;-1.09;68.39
80382;BME280;69692;55.820;37.490;2023-12-29T01:02:13;98891.66;;;-1.12;68.60
80382;BME280;69692;55.820;37.490;2023-12-29T01:04:39;98893.66;;;-1.14;68.75
80382;BME280;69692;55.820;37.490;2023-12-29T01:07:05;98885.78;;;-1.22;69.00
80382;BME280;69692;55.820;37.490;2023-12-29T01:09:31;98902.59;;;-1.54;70.12
80382;BME280;69692;55.820;37.490;2023-12-29T01:11:57;98902.44;;;-1.53;70.09
80382;BME280;69692;55.820;37.490;2023-12-29T01:14:23;98894.75;;;-1.70;70.36
80382;BME280;69692;55.820;37.490;2023-12-29T01:16:49;98899.19;;;-1.63;70.59
80382;BME280;69692;55.820;37.490;2023-12-29T01:19:15;98891.75;;;-1.59;70.48
80382;BME280;69692;55.820;37.490;2023-12-29T01:21:41;98891.13;;;-1.69;70.74
80382;BME280;69692;55.820;37.490;2023-12-29T01:24:06;98892.53;;;-1.51;70.07
80382;BME280;69692;55.820;37.490;2023-12-29T01:26:39;98878.13;;;-1.40;69.58
80382;BME280;69692;55.820;37.490;2023-12-29T01:29:05;98872.59;;;-1.53;69.83
80382;BME280;69692;55.820;37.490;2023-12-29T01:31:32;98859.72;;;-1.48;69.79
80382;BME280;69692;55.820;37.490;2023-12-29T01:33:58;98849.13;;;-1.40;69.51
80382;BME280;69692;55.820;37.490;2023-12-29T01:36:25;98845.91;;;-1.27;69.70
80382;BME280;69692;55.820;37.490;2023-12-29T01:38:51;98837.59;;;-1.16;69.01
80382;BME280;69692;55.820;37.490;2023-12-29T01:41:19;98826.09;;;-1.23;68.99
80382;BME280;69692;55.820;37.490;2023-12-29T01:46:40;98818.53;;;-1.26;69.01
80382;BME280;69692;55.820;37.490;2023-12-29T01:49:06;98814.78;;;-1.32;69.08
80382;BME280;69692;55.820;37.490;2023-12-29T01:51:32;98803.34;;;-1.24;69.24
80382;BME280;69692;55.820;37.490;2023-12-29T01:53:59;98797.81;;;-1.37;69.15
80382;BME280;69692;55.820;37.490;2023-12-29T01:56:25;98797.59;;;-1.28;69.36
80382;BME280;69692;55.820;37.490;2023-12-29T01:58:51;98788.69;;;-1.27;69.21
80382;BME280;69692;55.820;37.490;2023-12-29T02:01:18;98785.88;;;-1.25;69.00
80382;BME280;69692;55.820;37.490;2023-12-29T02:03:44;98784.19;;;-1.18;68.99
80382;BME280;69692;55.820;37.490;2023-12-29T02:06:12;98792.19;;;-1.11;68.75
80382;BME280;69692;55.820;37.490;2023-12-29T02:08:40;98780.19;;;-1.14;68.83
80382;BME280;69692;55.820;37.490;2023-12-29T02:11:07;98771.44;;;-1.14;69.08
80382;BME280;69692;55.820;37.490;2023-12-29T02:13:34;98782.09;;;-1.08;68.45
80382;BME280;69692;55.820;37.490;2023-12-29T02:16:07;98774.72;;;-1.12;68.47
80382;BME280;69692;55.820;37.490;2023-12-29T02:18:36;98771.19;;;-1.05;68.60
80382;BME280;69692;55.820;37.490;2023-12-29T02:21:03;98769.25;;;-1.11;68.49
80382;BME280;69692;55.820;37.490;2023-12-29T02:23:30;98756.16;;;-1.04;68.19
80382;BME280;69692;55.820;37.490;2023-12-29T02:26:01;98756.09;;;-0.96;67.77
80382;BME280;69692;55.820;37.490;2023-12-29T02:28:28;98757.28;;;-0.99;68.18
80382;BME280;69692;55.820;37.490;2023-12-29T02:31:01;98756.16;;;-1.04;68.24
80382;BME280;69692;55.820;37.490;2023-12-29T02:33:36;98736.53;;;-1.02;68.21
80382;BME280;69692;55.820;37.490;2023-12-29T02:36:05;98740.78;;;-1.15;68.65
80382;BME280;69692;55.820;37.490;2023-12-29T02:38:32;98738.94;;;-1.15;68.57
80382;BME280;69692;55.820;37.490;2023-12-29T02:40:59;98736.13;;;-1.13;68.18
80382;BME280;69692;55.820;37.490;2023-12-29T02:43:26;98737.09;;;-1.29;68.72
80382;BME280;69692;55.820;37.490;2023-12-29T02:45:51;98733.44;;;-1.28;68.98
80382;BME280;69692;55.820;37.490;2023-12-29T02:48:18;98720.66;;;-1.39;69.66
80382;BME280;69692;55.820;37.490;2023-12-29T02:50:45;98713.38;;;-1.37;69.35
80382;BME280;69692;55.820;37.490;2023-12-29T02:53:11;98707.25;;;-1.30;69.16
80382;BME280;69692;55.820;37.490;2023-12-29T02:55:37;98707.34;;;-1.23;69.14
80382;BME280;69692;55.820;37.490;2023-12-29T02:58:03;98701.06;;;-1.22;69.02
80382;BME280;69692;55.820;37.490;2023-12-29T03:00:29;98699.00;;;-1.12;69.08
80382;BME280;69692;55.820;37.490;2023-12-29T03:02:55;98697.44;;;-1.06;68.42
80382;BME280;69692;55.820;37.490;2023-12-29T03:05:20;98693.34;;;-1.09;68.75
80382;BME280;69692;55.820;37.490;2023-12-29T03:07:46;98696.13;;;-1.02;67.83
80382;BME280;69692;55.820;37.490;2023-12-29T03:10:12;98698.81;;;-1.10;69.19
80382;BME280;69692;55.820;37.490;2023-12-29T03:12:38;98701.28;;;-1.09;69.22
80382;BME280;69692;55.820;37.490;2023-12-29T03:15:04;98684.88;;;-1.04;69.16
80382;BME280;69692;55.820;37.490;2023-12-29T03:17:32;98678.97;;;-1.06;69.14
80382;BME280;69692;55.820;37.490;2023-12-29T03:19:58;98668.41;;;-1.06;69.00
80382;BME280;69692;55.820;37.490;2023-12-29T03:22:24;98683.38;;;-0.99;69.53
80382;BME280;69692;55.820;37.490;2023-12-29T03:24:51;98678.91;;;-0.98;69.13
80382;BME280;69692;55.820;37.490;2023-12-29T03:27:17;98677.34;;;-1.07;69.62
80382;BME280;69692;55.820;37.490;2023-12-29T03:29:43;98671.69;;;-1.04;69.63
80382;BME280;69692;55.820;37.490;2023-12-29T03:32:08;98662.69;;;-1.10;69.30
80382;BME280;69692;55.820;37.490;2023-12-29T03:34:34;98661.97;;;-1.18;69.66
80382;BME280;69692;55.820;37.490;2023-12-29T03:37:00;98663.56;;;-1.32;70.11
80382;BME280;69692;55.820;37.490;2023-12-29T03:39:26;98657.13;;;-1.30;70.18
80382;BME280;69692;55.820;37.490;2023-12-29T03:41:52;98653.56;;;-1.22;70.65
80382;BME280;69692;55.820;37.490;2023-12-29T03:44:18;98649.59;;;-1.18;70.36
80382;BME280;69692;55.820;37.490;2023-12-29T03:46:44;98647.28;;;-1.21;70.49
80382;BME280;69692;55.820;37.490;2023-12-29T03:49:10;98643.13;;;-1.15;70.24
80382;BME280;69692;55.820;37.490;2023-12-29T03:51:36;98632.13;;;-1.19;70.04
80382;BME280;69692;55.820;37.490;2023-12-29T03:54:01;98631.94;;;-1.17;70.04
80382;BME280;69692;55.820;37.490;2023-12-29T03:56:29;98624.19;;;-1.34;70.87
80382;BME280;69692;55.820;37.490;2023-12-29T03:58:55;98625.16;;;-1.35;71.59
80382;BME280;69692;55.820;37.490;2023-12-29T04:01:20;98626.72;;;-1.26;71.45
80382;BME280;69692;55.820;37.490;2023-12-29T04:03:47;98626.34;;;-1.23;71.23
80382;BME280;69692;55.820;37.490;2023-12-29T04:06:13;98626.53;;;-1.39;71.82
80382;BME280;69692;55.820;37.490;2023-12-29T04:08:39;98626.34;;;-1.37;72.76
80382;BME280;69692;55.820;37.490;2023-12-29T04:11:05;98615.59;;;-1.36;73.18
80382;BME280;69692;55.820;37.490;2023-12-29T04:13:31;98615.53;;;-1.28;73.68
80382;BME280;69692;55.820;37.490;2023-12-29T04:15:57;98608.50;;;-1.35;73.90
80382;BME280;69692;55.820;37.490;2023-12-29T04:18:24;98604.03;;;-1.35;74.59
80382;BME280;69692;55.820;37.490;2023-12-29T04:20:50;98604.41;;;-1.38;74.35
80382;BME280;69692;55.820;37.490;2023-12-29T04:23:17;98597.94;;;-1.35;74.49
80382;BME280;69692;55.820;37.490;2023-12-29T04:25:43;98590.22;;;-1.37;74.82
80382;BME280;69692;55.820;37.490;2023-12-29T04:28:09;98580.84;;;-1.39;74.10
80382;BME280;69692;55.820;37.490;2023-12-29T04:30:36;98575.50;;;-1.31;74.82
80382;BME280;69692;55.820;37.490;2023-12-29T04:33:02;98563.66;;;-1.35;74.42
80382;BME280;69692;55.820;37.490;2023-12-29T04:35:31;98557.22;;;-1.33;75.26
80382;BME280;69692;55.820;37.490;2023-12-29T04:37:57;98553.47;;;-1.38;75.21
80382;BME280;69692;55.820;37.490;2023-12-29T04:40:22;98541.03;;;-1.44;74.95
80382;BME280;69692;55.820;37.490;2023-12-29T04:42:48;98542.38;;;-1.48;75.72
80382;BME280;69692;55.820;37.490;2023-12-29T04:45:14;98540.28;;;-1.53;75.94
80382;BME280;69692;55.820;37.490;2023-12-29T04:47:40;98527.38;;;-1.48;76.09
80382;BME280;69692;55.820;37.490;2023-12-29T04:50:06;98534.47;;;-1.48;75.90
80382;BME280;69692;55.820;37.490;2023-12-29T04:52:32;98528.66;;;-1.44;75.34
80382;BME280;69692;55.820;37.490;2023-12-29T04:54:58;98530.53;;;-1.38;75.54
80382;BME280;69692;55.820;37.490;2023-12-29T04:57:24;98534.63;;;-1.35;75.33
80382;BME280;69692;55.820;37.490;2023-12-29T04:59:50;98525.19;;;-1.30;74.96
80382;BME280;69692;55.820;37.490;2023-12-29T05:02:16;98527.19;;;-1.32;75.23
80382;BME280;69692;55.820;37.490;2023-12-29T05:04:42;98530.34;;;-1.36;74.69
80382;BME280;69692;55.820;37.490;2023-12-29T05:07:09;98521.63;;;-1.52;75.28
80382;BME280;69692;55.820;37.490;2023-12-29T05:09:35;98520.34;;;-1.56;76.33
80382;BME280;69692;55.820;37.490;2023-12-29T05:12:01;98524.19;;;-1.43;76.42
80382;BME280;69692;55.820;37.490;2023-12-29T05:14:27;98516.66;;;-1.32;75.87
80382;BME280;69692;55.820;37.490;2023-12-29T05:16:53;98513.44;;;-1.42;75.76
80382;BME280;69692;55.820;37.490;2023-12-29T05:19:19;98512.19;;;-1.31;75.83
80382;BME280;69692;55.820;37.490;2023-12-29T05:21:45;98507.53;;;-1.44;76.04
80382;BME280;69692;55.820;37.490;2023-12-29T05:24:11;98500.06;;;-1.40;75.71
80382;BME280;69692;55.820;37.490;2023-12-29T05:26:37;98501.44;;;-1.44;75.95
80382;BME280;69692;55.820;37.490;2023-12-29T05:29:03;98492.16;;;-1.40;75.67
80382;BME280;69692;55.820;37.490;2023-12-29T05:31:29;98495.72;;;-1.33;76.39
80382;BME280;69692;55.820;37.490;2023-12-29T05:33:56;98496.38;;;-1.46;76.60
80382;BME280;69692;55.820;37.490;2023-12-29T05:36:22;98497.63;;;-1.42;76.77
80382;BME280;69692;55.820;37.490;2023-12-29T05:38:48;98495.53;;;-1.46;76.59
80382;BME280;69692;55.820;37.490;2023-12-29T05:41:14;98499.06;;;-1.39;77.33
80382;BME280;69692;55.820;37.490;2023-12-29T05:43:40;98493.72;;;-1.31;76.59
80382;BME280;69692;55.820;37.490;2023-12-29T05:46:09;98497.53;;;-1.34;76.61
80382;BME280;69692;55.820;37.490;2023-12-29T05:48:39;98491.72;;;-1.44;76.69
80382;BME280;69692;55.820;37.490;2023-12-29T05:51:09;98492.34;;;-1.42;76.82
80382;BME280;69692;55.820;37.490;2023-12-29T05:53:35;98486.00;;;-1.47;76.59
80382;BME280;69692;55.820;37.490;2023-12-29T05:56:01;98488.63;;;-1.62;77.49
80382;BME280;69692;55.820;37.490;2023-12-29T05:58:27;98487.06;;;-1.57;77.72
80382;BME280;69692;55.820;37.490;2023-12-29T06:00:54;98482.44;;;-1.55;77.56
80382;BME280;69692;55.820;37.490;2023-12-29T06:03:21;98479.25;;;-1.50;76.74
80382;BME280;69692;55.820;37.490;2023-12-29T06:05:48;98477.53;;;-1.43;76.97
80382;BME280;69692;55.820;37.490;2023-12-29T06:08:14;98487.72;;;-1.40;76.64
80382;BME280;69692;55.820;37.490;2023-12-29T06:10:40;98471.69;;;-1.38;76.67
80382;BME280;69692;55.820;37.490;2023-12-29T06:13:06;98471.88;;;-1.40;76.78
80382;BME280;69692;55.820;37.490;2023-12-29T06:15:32;98469.34;;;-1.33;77.05
80382;BME280;69692;55.820;37.490;2023-12-29T06:17:58;98472.31;;;-1.36;76.81
80382;BME280;69692;55.820;37.490;2023-12-29T06:20:25;98474.69;;;-1.41;76.24
80382;BME280;69692;55.820;37.490;2023-12-29T06:22:51;98466.53;;;-1.46;76.51
80382;BME280;69692;55.820;37.490;2023-12-29T06:25:17;98456.88;;;-1.54;77.06
80382;BME280;69692;55.820;37.490;2023-12-29T06:27:44;98460.06;;;-1.44;77.01
80382;BME280;69692;55.820;37.490;2023-12-29T06:30:11;98467.78;;;-1.42;76.75
80382;BME280;69692;55.820;37.490;2023-12-29T06:32:37;98455.59;;;-1.43;76.85
80382;BME280;69692;55.820;37.490;2023-12-29T06:35:04;98441.97;;;-1.32;76.15
80382;BME280;69692;55.820;37.490;2023-12-29T06:37:31;98446.66;;;-1.28;76.71
80382;BME280;69692;55.820;37.490;2023-12-29T06:39:58;98441.22;;;-1.26;75.64
80382;BME280;69692;55.820;37.490;2023-12-29T06:42:24;98443.91;;;-1.20;75.66
80382;BME280;69692;55.820;37.490;2023-12-29T06:44:50;98445.75;;;-1.20;75.78
80382;BME280;69692;55.820;37.490;2023-12-29T06:47:16;98454.13;;;-1.16;75.86
80382;BME280;69692;55.820;37.490;2023-12-29T06:49:42;98455.13;;;-1.17;76.54
80382;BME280;69692;55.820;37.490;2023-12-29T06:52:08;98455.63;;;-1.07;75.62
80382;BME280;69692;55.820;37.490;2023-12-29T06:54:34;98449.25;;;-0.98;75.48
80382;BME280;69692;55.820;37.490;2023-12-29T06:57:00;98452.16;;;-0.93;74.99
80382;BME280;69692;55.820;37.490;2023-12-29T06:59:26;98443.34;;;-0.79;75.13
80382;BME280;69692;55.820;37.490;2023-12-29T07:01:52;98446.91;;;-0.72;74.20
80382;BME280;69692;55.820;37.490;2023-12-29T07:04:17;98447.78;;;-0.65;74.83
80382;BME280;69692;55.820;37.490;2023-12-29T07:06:43;98433.31;;;-0.69;74.81
80382;BME280;69692;55.820;37.490;2023-12-29T07:09:09;98429.66;;;-0.68;74.96
80382;BME280;69692;55.820;37.490;2023-12-29T07:11:36;98424.78;;;-0.71;74.39
80382;BME280;69692;55.820;37.490;2023-12-29T07:14:02;98418.22;;;-0.75;74.79
80382;BME280;69692;55.820;37.490;2023-12-29T07:16:29;98420.69;;;-0.73;74.30
80382;BME280;69692;55.820;37.490;2023-12-29T07:18:55;98427.09;;;-0.82;75.39
80382;BME280;69692;55.820;37.490;2023-12-29T07:21:21;98427.03;;;-0.89;75.28
80382;BME280;69692;55.820;37.490;2023-12-29T07:23:47;98438.41;;;-0.88;75.38
80382;BME280;69692;55.820;37.490;2023-12-29T07:26:14;98432.34;;;-0.82;75.63
80382;BME280;69692;55.820;37.490;2023-12-29T07:28:40;98431.16;;;-0.80;75.82
80382;BME280;69692;55.820;37.490;2023-12-29T07:31:06;98428.22;;;-0.70;75.73
80382;BME280;69692;55.820;37.490;2023-12-29T07:33:33;98417.03;;;-0.72;74.85
80382;BME280;69692;55.820;37.490;2023-12-29T07:35:59;98426.59;;;-0.71;75.93
80382;BME280;69692;55.820;37.490;2023-12-29T07:38:25;98432.06;;;-0.73;74.92
80382;BME280;69692;55.820;37.490;2023-12-29T07:40:52;98423.06;;;-0.57;75.36
80382;BME280;69692;55.820;37.490;2023-12-29T07:43:18;98412.34;;;-0.49;75.77
80382;BME280;69692;55.820;37.490;2023-12-29T07:45:44;98422.47;;;-0.31;74.54
80382;BME280;69692;55.820;37.490;2023-12-29T07:48:10;98417.63;;;-0.27;73.87
80382;BME280;69692;55.820;37.490;2023-12-29T07:50:36;98418.28;;;-0.19;74.30
80382;BME280;69692;55.820;37.490;2023-12-29T07:53:02;98406.34;;;-0.15;73.60
80382;BME280;69692;55.820;37.490;2023-12-29T07:55:30;98406.19;;;-0.07;73.74
80382;BME280;69692;55.820;37.490;2023-12-29T07:57:56;98408.91;;;0.07;72.62
80382;BME280;69692;55.820;37.490;2023-12-29T08:00:23;98407.09;;;0.07;72.68
80382;BME280;69692;55.820;37.490;2023-12-29T08:02:49;98397.88;;;-0.04;73.23
80382;BME280;69692;55.820;37.490;2023-12-29T08:05:16;98396.84;;;-0.03;73.66
80382;BME280;69692;55.820;37.490;2023-12-29T08:07:43;98403.94;;;-0.10;72.80
80382;BME280;69692;55.820;37.490;2023-12-29T08:10:09;98404.78;;;-0.03;73.54
80382;BME280;69692;55.820;37.490;2023-12-29T08:12:36;98395.09;;;0.05;72.87
80382;BME280;69692;55.820;37.490;2023-12-29T08:15:02;98395.69;;;0.07;72.64
80382;BME280;69692;55.820;37.490;2023-12-29T08:17:32;98385.25;;;-0.02;73.82
80382;BME280;69692;55.820;37.490;2023-12-29T08:19:58;98384.09;;;0.08;72.99
80382;BME280;69692;55.820;37.490;2023-12-29T08:22:25;98392.88;;;0.15;73.31
80382;BME280;69692;55.820;37.490;2023-12-29T08:24:50;98393.94;;;0.20;72.21
80382;BME280;69692;55.820;37.490;2023-12-29T08:27:24;98393.56;;;0.23;73.27
80382;BME280;69692;55.820;37.490;2023-12-29T08:29:51;98390.44;;;0.13;73.07
80382;BME280;69692;55.820;37.490;2023-12-29T08:32:17;98379.28;;;0.18;74.01
80382;BME280;69692;55.820;37.490;2023-12-29T08:34:43;98384.13;;;0.14;73.78
80382;BME280;69692;55.820;37.490;2023-12-29T08:37:09;98379.91;;;0.20;73.34
80382;BME280;69692;55.820;37.490;2023-12-29T08:39:35;98370.41;;;0.32;72.90
80382;BME280;69692;55.820;37.490;2023-12-29T08:42:01;98370.84;;;0.36;73.65
80382;BME280;69692;55.820;37.490;2023-12-29T08:44:27;98371.88;;;0.41;74.08
80382;BME280;69692;55.820;37.490;2023-12-29T08:46:53;98365.19;;;0.45;73.56
80382;BME280;69692;55.820;37.490;2023-12-29T08:49:19;98368.25;;;0.49;74.04
80382;BME280;69692;55.820;37.490;2023-12-29T08:51:45;98366.78;;;0.40;74.23
80382;BME280;69692;55.820;37.490;2023-12-29T08:54:11;98355.22;;;0.47;74.32
80382;BME280;69692;55.820;37.490;2023-12-29T08:56:37;98353.94;;;0.37;74.05
80382;BME280;69692;55.820;37.490;2023-12-29T08:59:03;98349.28;;;0.39;73.83
80382;BME280;69692;55.820;37.490;2023-12-29T09:01:29;98351.31;;;0.37;74.38
80382;BME280;69692;55.820;37.490;2023-12-29T09:03:55;98340.31;;;0.33;74.99
80382;BME280;69692;55.820;37.490;2023-12-29T09:06:21;98348.94;;;0.14;75.35
80382;BME280;69692;55.820;37.490;2023-12-29T09:08:47;98339.97;;;0.08;76.05
80382;BME280;69692;55.820;37.490;2023-12-29T09:11:13;98346.00;;;0.30;76.39
80382;BME280;69692;55.820;37.490;2023-12-29T09:13:39;98340.38;;;0.46;74.95
80382;BME280;69692;55.820;37.490;2023-12-29T09:16:05;98335.66;;;0.42;75.07
80382;BME280;69692;55.820;37.490;2023-12-29T09:18:32;98340.16;;;0.48;75.33
80382;BME280;69692;55.820;37.490;2023-12-29T09:20:57;98333.06;;;0.55;74.26
80382;BME280;69692;55.820;37.490;2023-12-29T09:23:23;98339.72;;;0.44;75.10
80382;BME280;69692;55.820;37.490;2023-12-29T09:25:49;98319.19;;;0.46;75.57
80382;BME280;69692;55.820;37.490;2023-12-29T09:28:15;98309.84;;;0.57;74.74
80382;BME280;69692;55.820;37.490;2023-12-29T09:30:41;98311.25;;;0.46;76.22
80382;BME280;69692;55.820;37.490;2023-12-29T09:33:07;98311.63;;;0.43;75.74
80382;BME280;69692;55.820;37.490;2023-12-29T09:35:36;98302.66;;;0.38;76.23
80382;BME280;69692;55.820;37.490;2023-12-29T09:38:02;98310.41;;;0.33;75.97
80382;BME280;69692;55.820;37.490;2023-12-29T09:40:29;98319.56;;;0.37;76.15
80382;BME280;69692;55.820;37.490;2023-12-29T09:42:55;98319.41;;;0.51;75.83
80382;BME280;69692;55.820;37.490;2023-12-29T09:45:25;98319.41;;;0.58;76.19
80382;BME280;69692;55.820;37.490;2023-12-29T09:47:52;98316.56;;;0.46;76.05
80382;BME280;69692;55.820;37.490;2023-12-29T09:50:21;98310.84;;;0.49;75.62
80382;BME280;69692;55.820;37.490;2023-12-29T09:52:48;98316.34;;;0.48;76.47
80382;BME280;69692;55.820;37.490;2023-12-29T09:55:18;98303.94;;;0.55;75.96
80382;BME280;69692;55.820;37.490;2023-12-29T09:57:46;98317.59;;;0.58;76.29
80382;BME280;69692;55.820;37.490;2023-12-29T10:00:15;98304.19;;;0.67;75.49
80382;BME280;69692;55.820;37.490;2023-12-29T10:02:42;98300.94;;;0.71;75.41
80382;BME280;69692;55.820;37.490;2023-12-29T10:05:08;98290.16;;;0.86;74.94
80382;BME280;69692;55.820;37.490;2023-12-29T10:07:39;98294.06;;;0.90;75.72
80382;BME280;69692;55.820;37.490;2023-12-29T10:10:05;98289.75;;;0.82;75.03
80382;BME280;69692;55.820;37.490;2023-12-29T10:12:33;98286.69;;;0.85;75.27
80382;BME280;69692;55.820;37.490;2023-12-29T10:15:12;98285.28;;;0.96;75.93
80382;BME280;69692;55.820;37.490;2023-12-29T10:18:04;98293.25;;;0.96;75.53
80382;BME280;69692;55.820;37.490;2023-12-29T10:20:44;98295.69;;;0.98;75.30
80382;BME280;69692;55.820;37.490;2023-12-29T10:23:13;98297.09;;;1.00;76.21
80382;BME280;69692;55.820;37.490;2023-12-29T10:25:42;98289.97;;;0.94;76.22
80382;BME280;69692;55.820;37.490;2023-12-29T10:28:13;98300.16;;;1.04;76.17
80382;BME280;69692;55.820;37.490;2023-12-29T10:30:39;98294.69;;;1.05;75.63
80382;BME280;69692;55.820;37.490;2023-12-29T10:33:06;98289.97;;;1.01;76.54
80382;BME280;69692;55.820;37.490;2023-12-29T10:35:34;98285.69;;;1.00;76.25
80382;BME280;69692;55.820;37.490;2023-12-29T10:38:11;98277.97;;;0.92;77.01
80382;BME280;69692;55.820;37.490;2023-12-29T10:40:38;98283.66;;;0.95;77.04
80382;BME280;69692;55.820;37.490;2023-12-29T10:43:06;98283.47;;;0.90;77.08
80382;BME280;69692;55.820;37.490;2023-12-29T10:45:34;98279.97;;;0.76;77.21
80382;BME280;69692;55.820;37.490;2023-12-29T10:48:02;98273.06;;;0.82;78.00
80382;BME280;69692;55.820;37.490;2023-12-29T10:50:28;98267.38;;;0.92;77.68
80382;BME280;69692;55.820;37.490;2023-12-29T10:53:12;98269.19;;;0.98;77.84
80382;BME280;69692;55.820;37.490;2023-12-29T10:55:38;98273.09;;;1.08;77.75
80382;BME280;69692;55.820;37.490;2023-12-29T10:58:05;98275.13;;;1.06;77.51
80382;BME280;69692;55.820;37.490;2023-12-29T11:00:31;98286.94;;;0.97;78.44
80382;BME280;69692;55.820;37.490;2023-12-29T11:03:01;98277.97;;;0.92;78.77
80382;BME280;69692;55.820;37.490;2023-12-29T11:05:27;98283.66;;;0.95;79.38
80382;BME280;69692;55.820;37.490;2023-12-29T11:07:54;98282.03;;;1.01;79.04
80382;BME280;69692;55.820;37.490;2023-12-29T11:10:22;98276.75;;;1.07;79.18
80382;BME280;69692;55.820;37.490;2023-12-29T11:12:48;98274.09;;;1.14;79.50
80382;BME280;69692;55.820;37.490;2023-12-29T11:15:17;98272.66;;;1.25;78.72
80382;BME280;69692;55.820;37.490;2023-12-29T11:17:43;98278.78;;;1.18;79.23
80382;BME280;69692;55.820;37.490;2023-12-29T11:20:16;98279.59;;;1.19;79.56
80382;BME280;69692;55.820;37.490;2023-12-29T11:22:43;98273.69;;;1.10;80.34
80382;BME280;69692;55.820;37.490;2023-12-29T11:25:11;98279.19;;;1.02;81.50
80382;BME280;69692;55.820;37.490;2023-12-29T11:27:38;98279.19;;;1.02;80.93
80382;BME280;69692;55.820;37.490;2023-12-29T11:30:04;98278.16;;;1.03;81.14
80382;BME280;69692;55.820;37.490;2023-12-29T11:35:11;98284.09;;;1.12;82.36
80382;BME280;69692;55.820;37.490;2023-12-29T11:40:37;98281.84;;;1.22;82.29
80382;BME280;69692;55.820;37.490;2023-12-29T11:43:12;98280.81;;;1.30;81.74
80382;BME280;69692;55.820;37.490;2023-12-29T11:45:39;98282.22;;;1.32;81.79
80382;BME280;69692;55.820;37.490;2023-12-29T11:48:05;98279.59;;;1.32;82.21
80382;BME280;69692;55.820;37.490;2023-12-29T11:50:33;98278.56;;;1.33;82.78
80382;BME280;69692;55.820;37.490;2023-12-29T11:53:00;98277.75;;;1.39;82.46
80382;BME280;69692;55.820;37.490;2023-12-29T11:55:39;98278.16;;;1.43;82.73
80382;BME280;69692;55.820;37.490;2023-12-29T11:58:25;98280.41;;;1.33;82.17
80382;BME280;69692;55.820;37.490;2023-12-29T12:00:55;98275.91;;;1.33;82.89
80382;BME280;69692;55.820;37.490;2023-12-29T12:03:28;98272.88;;;1.36;82.92
80382;BME280;69692;55.820;37.490;2023-12-29T12:05:57;98277.97;;;1.38;83.61
80382;BME280;69692;55.820;37.490;2023-12-29T12:08:36;98284.47;;;1.42;83.01
80382;BME280;69692;55.820;37.490;2023-12-29T12:13:59;98284.47;;;1.55;82.96
80382;BME280;69692;55.820;37.490;2023-12-29T12:19:14;98286.13;;;2.21;85.94
80382;BME280;69692;55.820;37.490;2023-12-29T12:21:40;98289.63;;;2.08;81.85
80382;BME280;69692;55.820;37.490;2023-12-29T12:24:07;98287.22;;;1.93;82.24
80382;BME280;69692;55.820;37.490;2023-12-29T12:26:34;98289.69;;;1.88;82.64
80382;BME280;69692;55.820;37.490;2023-12-29T12:29:04;98290.53;;;1.75;82.74
80382;BME280;69692;55.820;37.490;2023-12-29T12:31:30;98287.09;;;1.68;83.58
80382;BME280;69692;55.820;37.490;2023-12-29T12:33:56;98299.94;;;1.71;83.54
80382;BME280;69692;55.820;37.490;2023-12-29T12:36:23;98301.59;;;1.66;84.08
80382;BME280;69692;55.820;37.490;2023-12-29T12:38:54;98297.50;;;1.63;84.09
80382;BME280;69692;55.820;37.490;2023-12-29T12:41:21;98299.53;;;1.61;84.83
80382;BME280;69692;55.820;37.490;2023-12-29T12:44:11;98304.03;;;1.61;85.31
80382;BME280;69692;55.820;37.490;2023-12-29T12:49:13;98311.31;;;1.78;85.22
80382;BME280;69692;55.820;37.490;2023-12-29T12:51:39;98309.53;;;1.79;84.83
80382;BME280;69692;55.820;37.490;2023-12-29T12:54:06;98326.25;;;1.79;84.71
80382;BME280;69692;55.820;37.490;2023-12-29T12:56:33;98325.22;;;1.81;85.25
80382;BME280;69692;55.820;37.490;2023-12-29T12:59:02;98315.81;;;1.85;85.19
80382;BME280;69692;55.820;37.490;2023-12-29T13:01:28;98325.41;;;1.86;84.89
80382;BME280;69692;55.820;37.490;2023-12-29T13:03:58;98320.28;;;1.91;85.35
80382;BME280;69692;55.820;37.490;2023-12-29T13:06:24;98321.91;;;1.98;84.88
80382;BME280;69692;55.820;37.490;2023-12-29T13:08:51;98321.88;;;2.05;84.81